Time;durP1;ratioP1;P1;durP2;ratioP2;P2;SDS_P1;SDS_P2;PMS_P1;PMS_P2;Temp;Humidity;BMP_temperature;BMP_pressure;BME280_temperature;BME280_humidity;BME280_pressure;Samples;Min_cycle;Max_cycle;Signal;HPM_P1;HPM_P2
2023/03/24 00:01:57;;;;;;;4.53;1.40;;;12.50;99.90;;;;;;4995125;28;20422;-87
2023/03/24 00:04:26;;;;;;;2.13;1.00;;;12.40;99.90;;;;;;4996586;28;20433;-86
2023/03/24 00:06:52;;;;;;;3.97;2.20;;;12.40;99.90;;;;;;4996571;28;20765;-80
2023/03/24 00:09:21;;;;;;;3.07;1.27;;;12.50;99.90;;;;;;4996509;28;20421;-80
2023/03/24 00:11:47;;;;;;;3.63;0.80;;;12.50;99.90;;;;;;4996317;28;20476;-83
2023/03/24 00:14:12;;;;;;;1.50;0.33;;;12.50;99.90;;;;;;4995265;28;20844;-88
2023/03/24 00:16:41;;;;;;;3.60;1.03;;;12.50;99.90;;;;;;5011020;28;20174;-88
2023/03/24 00:19:12;;;;;;;2.00;0.80;;;12.40;99.90;;;;;;4996149;28;20285;-87
2023/03/24 00:21:37;;;;;;;2.70;1.10;;;12.40;99.90;;;;;;4996155;28;20415;-82
2023/03/24 00:24:06;;;;;;;3.03;0.97;;;12.40;99.90;;;;;;4996262;28;20774;-88
2023/03/24 00:26:31;;;;;;;3.17;1.03;;;12.40;99.90;;;;;;4996222;28;20182;-82
2023/03/24 00:29:05;;;;;;;2.50;0.80;;;12.40;99.90;;;;;;4994764;28;20418;-81
2023/03/24 00:31:31;;;;;;;2.67;1.30;;;12.50;99.90;;;;;;4995579;28;20356;-82
2023/03/24 00:33:57;;;;;;;2.20;1.03;;;12.40;99.90;;;;;;4994848;28;20975;-81
2023/03/24 00:36:25;;;;;;;3.83;1.17;;;12.50;99.90;;;;;;5010428;28;20260;-83
2023/03/24 00:38:52;;;;;;;2.00;0.90;;;12.50;99.90;;;;;;5010959;28;20958;-88
2023/03/24 00:41:18;;;;;;;2.13;0.70;;;12.40;99.90;;;;;;4995724;28;20424;-81
2023/03/24 00:43:48;;;;;;;2.83;0.90;;;12.40;99.90;;;;;;4995618;28;20418;-83
2023/03/24 00:46:26;;;;;;;2.70;1.17;;;12.30;99.90;;;;;;4995342;28;20425;-83
2023/03/24 00:49:01;;;;;;;6.33;0.73;;;12.20;99.90;;;;;;4995605;28;20546;-81
2023/03/24 00:51:28;;;;;;;3.60;1.93;;;12.30;99.90;;;;;;4995402;28;20483;-81
2023/03/24 00:53:56;;;;;;;2.63;1.50;;;12.20;99.90;;;;;;4995462;28;20414;-82
2023/03/24 00:56:24;;;;;;;3.80;1.00;;;12.20;99.90;;;;;;5010523;28;20416;-84
2023/03/24 00:58:50;;;;;;;2.23;1.30;;;12.20;99.90;;;;;;4995064;28;20475;-81
2023/03/24 01:01:15;;;;;;;2.97;0.77;;;12.10;99.90;;;;;;4995106;28;20425;-81
2023/03/24 01:03:46;;;;;;;2.57;1.20;;;12.10;99.90;;;;;;4994785;28;20254;-81
2023/03/24 01:06:13;;;;;;;7.57;1.40;;;12.10;99.90;;;;;;4995363;28;20174;-83
2023/03/24 01:08:38;;;;;;;2.50;1.20;;;12.20;99.90;;;;;;4993886;28;20948;-83
2023/03/24 01:11:07;;;;;;;3.83;0.90;;;12.10;99.90;;;;;;4993396;28;20473;-83
2023/03/24 01:13:33;;;;;;;4.30;0.80;;;12.10;99.90;;;;;;4993937;28;20177;-82
2023/03/24 01:15:58;;;;;;;3.07;0.93;;;12.10;99.90;;;;;;4993072;28;20440;-85
2023/03/24 01:18:24;;;;;;;2.63;1.03;;;12.10;99.90;;;;;;4994784;28;20179;-85
2023/03/24 01:20:50;;;;;;;2.77;0.90;;;12.10;99.90;;;;;;4994693;28;20223;-85
2023/03/24 01:23:22;;;;;;;3.13;1.00;;;12.10;99.90;;;;;;4993484;28;20185;-82
2023/03/24 01:25:49;;;;;;;3.63;1.27;;;12.10;99.90;;;;;;4994619;28;20433;-85
2023/03/24 01:28:20;;;;;;;2.47;0.90;;;12.00;99.90;;;;;;4994604;28;20831;-84
2023/03/24 01:30:46;;;;;;;2.50;1.03;;;12.10;99.90;;;;;;4994209;28;20987;-81
2023/03/24 01:33:11;;;;;;;2.93;0.77;;;12.10;99.90;;;;;;4994520;28;20425;-86
2023/03/24 01:35:37;;;;;;;3.43;1.17;;;12.10;99.90;;;;;;4994420;28;20182;-84
2023/03/24 01:38:10;;;;;;;1.80;1.00;;;12.10;99.90;;;;;;4994144;28;20193;-84
2023/03/24 01:40:38;;;;;;;2.83;0.93;;;12.10;99.90;;;;;;4994250;28;20187;-86
2023/03/24 01:43:06;;;;;;;2.37;0.77;;;11.90;99.90;;;;;;4993004;28;20432;-87
2023/03/24 01:45:40;;;;;;;2.20;1.50;;;12.00;99.90;;;;;;4993866;28;20553;-86
2023/03/24 01:48:30;;;;;;;4.47;1.30;;;12.00;99.90;;;;;;4994292;28;20423;-86
2023/03/24 01:51:04;;;;;;;4.30;1.33;;;12.00;99.90;;;;;;4994231;28;20523;-87
2023/03/24 01:53:31;;;;;;;1.63;1.27;;;11.80;99.90;;;;;;5009237;28;20831;-82
2023/03/24 01:55:58;;;;;;;5.17;0.97;;;11.80;99.90;;;;;;4993730;28;20404;-82
2023/03/24 01:58:27;;;;;;;4.40;0.73;;;11.80;99.90;;;;;;4993809;28;20544;-81
2023/03/24 02:00:53;;;;;;;3.00;1.00;;;11.80;99.90;;;;;;4992207;28;20429;-80
2023/03/24 02:03:21;;;;;;;3.50;1.37;;;11.80;99.90;;;;;;4993836;28;20448;-80
2023/03/24 02:05:50;;;;;;;3.53;1.10;;;11.70;99.90;;;;;;4993889;28;20500;-80
2023/03/24 02:08:33;;;;;;;1.73;0.80;;;11.70;99.90;;;;;;4993770;28;20416;-81
2023/03/24 02:11:00;;;;;;;4.47;1.07;;;11.80;99.90;;;;;;4993620;28;20570;-80
2023/03/24 02:13:26;;;;;;;4.23;1.37;;;11.80;99.90;;;;;;4992455;28;20495;-80
2023/03/24 02:16:14;;;;;;;2.50;0.90;;;11.80;99.90;;;;;;4993352;28;20820;-82
2023/03/24 02:18:45;;;;;;;2.80;0.93;;;11.80;99.90;;;;;;4993743;28;20526;-81
2023/03/24 02:21:46;;;;;;;4.97;1.07;;;11.70;99.90;;;;;;4993694;28;20411;-81
2023/03/24 02:24:22;;;;;;;5.47;1.27;;;11.80;99.90;;;;;;4993491;28;20420;-82
2023/03/24 02:27:05;;;;;;;2.90;1.03;;;11.90;99.90;;;;;;4993466;28;20417;-83
2023/03/24 02:30:12;;;;;;;2.70;1.00;;;11.70;99.90;;;;;;4993479;28;20410;-81
2023/03/24 02:33:15;;;;;;;1.90;0.70;;;11.80;99.90;;;;;;4975654;28;20965;-83
2023/03/24 02:36:09;;;;;;;2.47;0.90;;;11.80;99.90;;;;;;4989407;28;20417;-86
2023/03/24 02:38:54;;;;;;;6.37;1.70;;;11.70;99.90;;;;;;4993441;28;20825;-86
2023/03/24 02:41:49;;;;;;;5.40;1.20;;;11.80;99.90;;;;;;4993354;28;20775;-85
2023/03/24 02:44:26;;;;;;;5.00;1.20;;;11.70;99.90;;;;;;4991883;28;20414;-87
2023/03/24 02:46:59;;;;;;;4.10;1.40;;;11.80;99.90;;;;;;4992974;28;20428;-84
2023/03/24 02:49:35;;;;;;;2.70;0.60;;;11.80;99.90;;;;;;4992085;28;20412;-82
2023/03/24 02:52:06;;;;;;;2.80;1.10;;;11.80;99.90;;;;;;4993310;28;20471;-87
2023/03/24 02:54:45;;;;;;;2.80;1.03;;;11.80;99.90;;;;;;4992077;28;20951;-88
2023/03/24 02:57:39;;;;;;;3.80;0.80;;;11.80;99.90;;;;;;4993731;28;20562;-86
2023/03/24 03:00:38;;;;;;;3.37;1.13;;;11.80;99.90;;;;;;4998024;28;20468;-86
2023/03/24 03:03:22;;;;;;;1.90;0.90;;;11.80;99.90;;;;;;4995660;28;20515;-84
2023/03/24 03:05:58;;;;;;;1.57;0.50;;;11.80;99.90;;;;;;4998482;28;20426;-85
2023/03/24 03:08:27;;;;;;;3.20;1.87;;;11.80;99.90;;;;;;4999348;28;20825;-84
2023/03/24 03:10:56;;;;;;;4.20;1.93;;;11.80;99.90;;;;;;4999456;28;20939;-85
2023/03/24 03:13:31;;;;;;;6.10;1.10;;;11.70;99.90;;;;;;4999602;28;20506;-82
2023/03/24 03:16:08;;;;;;;3.07;0.97;;;11.70;99.90;;;;;;4999312;28;20435;-82
2023/03/24 03:18:48;;;;;;;2.60;1.03;;;11.60;99.90;;;;;;4959875;28;20427;-85
2023/03/24 03:21:16;;;;;;;2.10;0.80;;;11.70;99.90;;;;;;4999533;28;20512;-84
2023/03/24 03:23:53;;;;;;;5.97;1.20;;;11.80;99.90;;;;;;4999731;28;20919;-85
2023/03/24 03:26:22;;;;;;;2.47;0.80;;;11.90;99.90;;;;;;4998466;28;20783;-83
2023/03/24 03:28:56;;;;;;;3.37;1.90;;;11.90;99.90;;;;;;4999700;28;20417;-84
2023/03/24 03:31:28;;;;;;;2.30;0.80;;;11.80;99.90;;;;;;4999098;28;20823;-87
2023/03/24 03:34:39;;;;;;;2.40;1.17;;;11.90;99.90;;;;;;4998271;28;20919;-87
2023/03/24 03:37:33;;;;;;;2.40;1.07;;;11.90;99.90;;;;;;4999532;28;20420;-88
2023/03/24 03:40:08;;;;;;;3.00;0.80;;;11.90;99.90;;;;;;4990248;28;20830;-82
2023/03/24 03:42:34;;;;;;;3.60;1.60;;;11.80;99.90;;;;;;4999368;28;20962;-86
2023/03/24 03:45:00;;;;;;;1.70;1.17;;;11.90;99.90;;;;;;4999363;28;20418;-90
2023/03/24 03:47:25;;;;;;;2.57;0.97;;;11.90;99.90;;;;;;4999820;28;20410;-90
2023/03/24 03:49:51;;;;;;;2.80;1.30;;;12.00;99.90;;;;;;4999580;28;20167;-85
2023/03/24 03:52:17;;;;;;;2.60;1.53;;;12.00;99.90;;;;;;4999406;28;20315;-80
2023/03/24 03:54:43;;;;;;;4.03;1.80;;;12.10;99.90;;;;;;4999496;28;20645;-87
2023/03/24 03:57:11;;;;;;;4.80;1.70;;;12.20;99.90;;;;;;4999295;28;20273;-88
2023/03/24 03:59:37;;;;;;;3.23;1.50;;;12.10;99.90;;;;;;4997680;28;20602;-88
2023/03/24 04:02:09;;;;;;;2.40;1.50;;;12.10;99.90;;;;;;4998250;28;20434;-87
2023/03/24 04:04:48;;;;;;;2.80;1.33;;;12.20;99.90;;;;;;4999894;28;20426;-90
2023/03/24 04:07:30;;;;;;;3.30;1.30;;;12.30;99.90;;;;;;4998047;28;20441;-86
2023/03/24 04:10:21;;;;;;;2.27;0.93;;;12.30;99.90;;;;;;4995544;28;20424;-83
2023/03/24 04:13:05;;;;;;;3.23;0.93;;;12.30;99.90;;;;;;4996295;28;20910;-84
2023/03/24 04:15:39;;;;;;;7.03;1.97;;;12.20;99.90;;;;;;4996506;28;20466;-88
2023/03/24 04:18:24;;;;;;;2.73;0.93;;;12.30;99.90;;;;;;4997212;28;20432;-91
2023/03/24 04:21:16;;;;;;;3.60;1.50;;;12.30;99.90;;;;;;4944758;28;20438;-91
2023/03/24 04:23:53;;;;;;;1.90;1.30;;;12.30;99.90;;;;;;4976501;28;20427;-92
2023/03/24 04:26:59;;;;;;;1.60;1.13;;;12.40;99.90;;;;;;4977337;28;20468;-86
2023/03/24 04:29:41;;;;;;;2.77;1.77;;;12.50;99.90;;;;;;4975931;28;20937;-84
2023/03/24 04:32:23;;;;;;;2.30;0.90;;;12.40;99.90;;;;;;4977096;28;20470;-90
2023/03/24 04:34:54;;;;;;;1.70;1.13;;;12.40;99.90;;;;;;4977110;28;20932;-88
2023/03/24 04:37:36;;;;;;;2.57;1.00;;;12.40;99.90;;;;;;5008599;28;20431;-87
2023/03/24 04:40:06;;;;;;;2.70;0.97;;;12.30;99.90;;;;;;4977296;28;20803;-92
2023/03/24 04:42:46;;;;;;;3.90;1.30;;;12.40;99.90;;;;;;4976674;28;20438;-88
2023/03/24 04:45:13;;;;;;;2.67;1.63;;;12.40;99.90;;;;;;4990963;28;20932;-93
2023/03/24 04:47:52;;;;;;;2.90;1.30;;;12.40;99.90;;;;;;4997872;28;20420;-88
2023/03/24 04:50:29;;;;;;;4.80;1.40;;;12.30;99.90;;;;;;5012406;28;20532;-92
2023/03/24 04:52:55;;;;;;;1.63;1.10;;;12.30;99.90;;;;;;4994977;28;20463;-92
2023/03/24 04:55:53;;;;;;;1.80;0.60;;;12.30;99.90;;;;;;4996555;28;20417;-91
2023/03/24 04:58:23;;;;;;;2.50;0.83;;;12.30;99.90;;;;;;4996693;28;20180;-91
2023/03/24 05:00:50;;;;;;;2.93;1.30;;;12.10;99.90;;;;;;4994464;28;20413;-85
2023/03/24 05:03:17;;;;;;;2.67;1.17;;;12.20;99.90;;;;;;4995106;28;20421;-87
2023/03/24 05:05:45;;;;;;;2.00;1.00;;;12.10;99.90;;;;;;4995321;28;20874;-85
2023/03/24 05:08:11;;;;;;;2.80;0.70;;;12.20;99.90;;;;;;4994968;28;20786;-91
2023/03/24 05:10:37;;;;;;;2.57;1.40;;;12.20;99.90;;;;;;4995453;28;20413;-83
2023/03/24 05:13:04;;;;;;;2.20;1.10;;;12.20;99.90;;;;;;4995335;28;20230;-84
2023/03/24 05:15:29;;;;;;;2.93;1.10;;;12.20;99.90;;;;;;4994796;28;20179;-88
2023/03/24 05:17:55;;;;;;;2.67;1.40;;;12.20;99.90;;;;;;4995308;28;20422;-85
2023/03/24 05:20:21;;;;;;;2.53;1.17;;;12.20;99.90;;;;;;4995093;28;20176;-86
2023/03/24 05:22:48;;;;;;;2.17;0.87;;;12.20;99.90;;;;;;4967853;28;21017;-84
2023/03/24 05:25:15;;;;;;;2.00;1.30;;;12.20;99.90;;;;;;4984614;28;20416;-84
2023/03/24 05:27:41;;;;;;;5.30;1.23;;;12.20;99.90;;;;;;4994997;28;20411;-82
2023/03/24 05:30:10;;;;;;;4.87;2.43;;;12.30;99.90;;;;;;4994653;28;20475;-80
2023/03/24 05:32:36;;;;;;;3.10;1.03;;;12.30;99.90;;;;;;4994850;28;20464;-84
2023/03/24 05:35:01;;;;;;;3.50;1.70;;;12.40;99.90;;;;;;4994828;28;20401;-84
2023/03/24 05:37:27;;;;;;;2.90;1.30;;;12.40;99.90;;;;;;4994066;28;20170;-83
2023/03/24 05:39:53;;;;;;;2.60;1.50;;;12.50;99.90;;;;;;4995383;28;20179;-81
2023/03/24 05:42:19;;;;;;;3.30;1.43;;;12.50;99.90;;;;;;4995153;28;20181;-81
2023/03/24 05:44:45;;;;;;;4.73;1.10;;;12.50;99.90;;;;;;4993209;28;20169;-84
2023/03/24 05:47:14;;;;;;;3.13;1.33;;;12.50;99.90;;;;;;4994566;28;20433;-82
2023/03/24 05:49:43;;;;;;;3.37;1.83;;;12.40;99.90;;;;;;4994690;28;20165;-79
2023/03/24 05:52:09;;;;;;;2.93;1.33;;;12.50;99.90;;;;;;4994380;28;20484;-80
2023/03/24 05:54:38;;;;;;;4.00;2.40;;;12.50;99.90;;;;;;4993616;28;20413;-78
2023/03/24 05:57:04;;;;;;;2.97;1.10;;;12.50;99.90;;;;;;4994434;28;20172;-79
2023/03/24 05:59:29;;;;;;;2.77;0.90;;;12.70;99.90;;;;;;4993967;28;20599;-79
2023/03/24 06:01:58;;;;;;;2.30;1.23;;;12.70;99.90;;;;;;4994447;28;20496;-79
2023/03/24 06:04:24;;;;;;;1.60;0.63;;;12.60;99.90;;;;;;4994320;28;20529;-79
2023/03/24 06:06:49;;;;;;;1.40;0.90;;;12.60;99.90;;;;;;4994259;28;20515;-78
2023/03/24 06:09:15;;;;;;;1.90;1.10;;;12.70;99.90;;;;;;4994299;28;20175;-78
2023/03/24 06:11:44;;;;;;;1.90;0.77;;;12.70;99.90;;;;;;4993906;28;20231;-78
2023/03/24 06:14:10;;;;;;;2.63;1.13;;;12.70;99.90;;;;;;4993978;28;20410;-78
2023/03/24 06:16:41;;;;;;;2.03;1.03;;;12.60;99.90;;;;;;4984408;28;20440;-78
2023/03/24 06:19:07;;;;;;;1.80;0.90;;;12.60;99.90;;;;;;4993801;28;20198;-78
2023/03/24 06:21:33;;;;;;;2.57;0.97;;;12.70;99.90;;;;;;4993788;28;20443;-78
2023/03/24 06:23:59;;;;;;;1.20;0.67;;;12.60;99.90;;;;;;4993311;28;20177;-78
2023/03/24 06:26:25;;;;;;;1.27;0.87;;;12.60;99.90;;;;;;4993662;28;20425;-78
2023/03/24 06:28:54;;;;;;;2.00;1.07;;;12.60;99.90;;;;;;4993264;28;20816;-78
2023/03/24 06:31:22;;;;;;;2.70;1.07;;;12.60;99.90;;;;;;4992995;28;20468;-79
2023/03/24 06:33:49;;;;;;;3.53;0.70;;;12.60;99.90;;;;;;4993090;28;20428;-79
2023/03/24 06:36:15;;;;;;;4.57;1.40;;;12.50;99.90;;;;;;4992716;28;20434;-78
2023/03/24 06:38:41;;;;;;;1.70;0.73;;;12.60;99.90;;;;;;4992219;28;20823;-78
2023/03/24 06:41:07;;;;;;;1.80;1.20;;;12.60;99.90;;;;;;4993482;28;20185;-78
2023/03/24 06:43:33;;;;;;;1.90;0.80;;;12.50;99.90;;;;;;4993311;28;20548;-78
2023/03/24 06:45:59;;;;;;;3.13;1.10;;;12.60;99.90;;;;;;4993039;28;20421;-79
2023/03/24 06:48:25;;;;;;;2.60;1.20;;;12.60;99.90;;;;;;4993283;28;20267;-79
2023/03/24 06:50:52;;;;;;;4.93;1.70;;;12.60;99.90;;;;;;4993201;28;20429;-79
2023/03/24 06:53:17;;;;;;;1.73;0.97;;;12.60;99.90;;;;;;4993107;28;20431;-79
2023/03/24 06:55:43;;;;;;;2.33;1.40;;;12.70;99.90;;;;;;4992280;28;20481;-79
2023/03/24 06:58:09;;;;;;;2.87;1.53;;;12.70;99.90;;;;;;4993311;28;20260;-80
2023/03/24 07:00:35;;;;;;;2.23;1.50;;;12.70;99.90;;;;;;4993225;28;20406;-79
2023/03/24 07:03:01;;;;;;;1.77;0.70;;;12.70;99.90;;;;;;4993348;28;20455;-79
2023/03/24 07:05:27;;;;;;;3.37;1.70;;;12.70;99.90;;;;;;4993501;28;20493;-78
2023/03/24 07:07:52;;;;;;;1.50;1.20;;;12.70;99.90;;;;;;4993389;28;20438;-78
2023/03/24 07:10:18;;;;;;;1.40;0.70;;;12.80;99.90;;;;;;4993395;28;20171;-78
2023/03/24 07:12:44;;;;;;;1.70;1.23;;;12.80;99.90;;;;;;4993265;28;20214;-78
2023/03/24 07:15:10;;;;;;;4.40;1.63;;;12.90;99.90;;;;;;4992851;28;20186;-78
2023/03/24 07:17:36;;;;;;;1.70;1.23;;;12.90;99.90;;;;;;4993390;28;20640;-78
2023/03/24 07:20:05;;;;;;;1.97;0.97;;;13.00;99.90;;;;;;4993340;28;20411;-79
2023/03/24 07:22:31;;;;;;;2.77;0.90;;;12.90;99.90;;;;;;4992099;28;20700;-78
2023/03/24 07:24:57;;;;;;;4.60;1.97;;;12.90;99.90;;;;;;4993099;28;20417;-78
2023/03/24 07:27:25;;;;;;;1.60;0.93;;;12.80;99.90;;;;;;4993202;28;20175;-78
2023/03/24 07:29:50;;;;;;;2.40;1.03;;;12.80;99.90;;;;;;4992986;28;20535;-79
2023/03/24 07:32:17;;;;;;;2.50;1.10;;;12.80;99.90;;;;;;4992047;28;20473;-79
2023/03/24 07:34:44;;;;;;;2.33;1.07;;;12.80;99.90;;;;;;4993098;28;20184;-78
2023/03/24 07:37:10;;;;;;;1.53;0.80;;;12.70;99.90;;;;;;4993074;28;20479;-78
2023/03/24 07:39:35;;;;;;;1.90;0.53;;;12.70;99.90;;;;;;4992922;28;20411;-78
2023/03/24 07:42:01;;;;;;;2.30;0.70;;;12.60;99.90;;;;;;4991824;28;20175;-79
2023/03/24 07:44:26;;;;;;;0.57;0.30;;;12.70;99.90;;;;;;4995245;28;20572;-78
2023/03/24 07:46:52;;;;;;;1.47;0.60;;;12.70;99.90;;;;;;4996679;28;20195;-78
2023/03/24 07:49:17;;;;;;;1.43;0.40;;;12.80;99.90;;;;;;4996794;28;20195;-78
2023/03/24 07:51:43;;;;;;;4.57;0.80;;;12.90;99.90;;;;;;4996538;28;20226;-79
2023/03/24 07:54:08;;;;;;;1.63;0.53;;;12.90;99.90;;;;;;4996615;28;20178;-79
2023/03/24 07:56:34;;;;;;;1.90;0.60;;;12.90;99.90;;;;;;5011743;28;20291;-79
2023/03/24 07:59:00;;;;;;;0.90;0.20;;;13.00;99.90;;;;;;4995976;28;20691;-78
2023/03/24 08:01:28;;;;;;;2.50;0.40;;;13.10;99.90;;;;;;4996430;28;20168;-79
2023/03/24 08:03:54;;;;;;;1.90;0.40;;;13.10;99.90;;;;;;4996327;28;20513;-79
2023/03/24 08:06:20;;;;;;;1.40;0.40;;;13.20;99.90;;;;;;4996311;28;20411;-79
2023/03/24 08:08:46;;;;;;;5.23;0.40;;;13.30;99.90;;;;;;4996283;28;20417;-79
2023/03/24 08:11:11;;;;;;;2.20;0.30;;;13.50;99.90;;;;;;4992341;28;20216;-79
2023/03/24 08:13:37;;;;;;;3.63;0.50;;;14.00;99.90;;;;;;4996061;28;20637;-79
2023/03/24 08:16:08;;;;;;;1.17;0.20;;;14.40;99.90;;;;;;4995957;28;20252;-79
2023/03/24 08:18:34;;;;;;;1.00;0.37;;;14.40;1.00;;;;;;4996295;28;20264;-79
2023/03/24 08:21:00;;;;;;;2.80;0.30;;;14.30;1.00;;;;;;4995915;28;20517;-80
2023/03/24 08:23:26;;;;;;;3.70;0.30;;;15.00;1.00;;;;;;4996291;28;20262;-79
2023/03/24 08:25:51;;;;;;;3.63;0.57;;;15.70;1.00;;;;;;4995862;28;20827;-79
2023/03/24 08:28:17;;;;;;;3.43;0.20;;;15.90;98.00;;;;;;4996161;28;20211;-79
2023/03/24 08:30:43;;;;;;;3.93;0.60;;;16.00;1.00;;;;;;4995625;28;20179;-79
2023/03/24 08:33:10;;;;;;;2.30;0.30;;;16.50;61.10;;;;;;4995636;28;20178;-80
2023/03/24 08:35:37;;;;;;;2.27;0.30;;;17.10;99.90;;;;;;4995905;28;20403;-80
2023/03/24 08:38:04;;;;;;;1.20;0.20;;;17.70;1.00;;;;;;4995761;28;20419;-80
2023/03/24 08:40:33;;;;;;;1.40;0.23;;;17.50;1.00;;;;;;4995866;28;20434;-80
2023/03/24 08:43:01;;;;;;;2.50;0.43;;;17.30;1.00;;;;;;4995732;28;20409;-80
2023/03/24 08:45:29;;;;;;;2.83;0.30;;;16.90;1.00;;;;;;4995322;28;20776;-81
2023/03/24 08:47:58;;;;;;;0.60;0.30;;;16.30;1.00;;;;;;4994510;28;20420;-80
2023/03/24 08:50:27;;;;;;;1.47;0.30;;;16.30;99.90;;;;;;4995542;28;20410;-80
2023/03/24 08:52:54;;;;;;;4.80;1.03;;;16.20;1.00;;;;;;4995319;28;20503;-79
2023/03/24 08:55:20;;;;;;;2.87;0.80;;;15.90;28.10;;;;;;4994758;28;20417;-79
2023/03/24 08:57:46;;;;;;;2.37;0.33;;;15.40;99.90;;;;;;4995448;28;20432;-79
2023/03/24 09:00:14;;;;;;;4.90;0.67;;;15.00;1.00;;;;;;4994873;28;20462;-80
2023/03/24 09:02:47;;;;;;;2.90;0.40;;;15.20;99.90;;;;;;4994159;28;20433;-79
2023/03/24 09:05:14;;;;;;;1.50;0.30;;;15.90;1.00;;;;;;4995115;28;20984;-80
2023/03/24 09:07:40;;;;;;;2.80;0.37;;;16.20;10.70;;;;;;4995190;28;20435;-80
2023/03/24 09:10:07;;;;;;;2.00;0.30;;;15.90;1.00;;;;;;4995060;28;20423;-79
2023/03/24 09:12:34;;;;;;;1.90;0.30;;;15.50;1.00;;;;;;4994854;28;20564;-80
2023/03/24 09:15:00;;;;;;;1.80;0.30;;;15.40;1.00;;;;;;4994617;28;20411;-79
2023/03/24 09:17:25;;;;;;;1.83;0.30;;;14.90;1.00;;;;;;4994946;28;20433;-79
2023/03/24 09:19:51;;;;;;;2.97;0.30;;;14.70;1.00;;;;;;4994983;28;20176;-80
2023/03/24 09:22:16;;;;;;;1.43;0.30;;;14.80;1.00;;;;;;4994906;28;20176;-80
2023/03/24 09:24:43;;;;;;;1.10;0.30;;;14.80;1.00;;;;;;4994450;28;20603;-79
2023/03/24 09:27:11;;;;;;;2.40;0.67;;;14.80;99.90;;;;;;4994674;28;20187;-81
2023/03/24 09:29:37;;;;;;;4.47;1.07;;;14.70;95.50;;;;;;4994529;28;20412;-79
2023/03/24 09:32:03;;;;;;;4.30;0.97;;;14.60;90.30;;;;;;4993572;28;20475;-79
2023/03/24 09:34:29;;;;;;;0.93;0.30;;;14.40;1.00;;;;;;4994594;28;20164;-80
2023/03/24 09:36:54;;;;;;;2.93;0.50;;;14.60;99.90;;;;;;5009678;28;20536;-80
2023/03/24 09:39:20;;;;;;;4.10;0.93;;;14.80;11.60;;;;;;4994327;28;20418;-79
2023/03/24 09:41:49;;;;;;;5.73;0.63;;;15.00;1.00;;;;;;4994530;28;20236;-79
2023/03/24 09:44:26;;;;;;;4.73;0.27;;;15.50;99.90;;;;;;4994052;28;20167;-79
2023/03/24 09:47:12;;;;;;;3.47;0.40;;;15.70;1.00;;;;;;4994362;28;20422;-79
2023/03/24 09:49:41;;;;;;;3.47;0.40;;;15.60;1.00;;;;;;4994403;28;20452;-79
2023/03/24 09:52:11;;;;;;;7.13;1.53;;;15.40;1.00;;;;;;4994227;28;20496;-79
2023/03/24 09:54:54;;;;;;;3.77;0.40;;;15.10;1.00;;;;;;4994277;28;20421;-78
2023/03/24 09:57:37;;;;;;;2.00;0.57;;;15.10;1.00;;;;;;4992274;28;20424;-79
2023/03/24 10:00:17;;;;;;;4.90;0.60;;;14.90;99.90;;;;;;4993965;28;20475;-79
2023/03/24 10:02:47;;;;;;;2.33;0.80;;;14.70;99.90;;;;;;4994337;28;20432;-79
2023/03/24 10:05:38;;;;;;;5.30;0.80;;;14.40;1.00;;;;;;4994357;28;20450;-79
2023/03/24 10:08:17;;;;;;;2.93;0.60;;;14.10;1.00;;;;;;4993452;28;20942;-78
2023/03/24 10:11:02;;;;;;;4.17;0.60;;;13.90;1.00;;;;;;4994831;28;20981;-78
2023/03/24 10:14:04;;;;;;;8.53;0.43;;;13.80;99.90;;;;;;5009251;28;20796;-79
2023/03/24 10:16:35;;;;;;;4.97;0.77;;;13.90;99.90;;;;;;4994219;28;20470;-79
2023/03/24 10:19:17;;;;;;;1.33;0.50;;;14.00;99.90;;;;;;4994054;28;20497;-78
2023/03/24 10:22:03;;;;;;;3.97;0.63;;;14.10;1.00;;;;;;4994161;28;20427;-78
2023/03/24 10:24:37;;;;;;;2.23;0.67;;;14.10;1.00;;;;;;5009102;28;20892;-79
2023/03/24 10:27:33;;;;;;;5.73;0.63;;;14.20;99.90;;;;;;4993965;28;20403;-79
2023/03/24 10:30:14;;;;;;;4.47;1.10;;;14.20;1.00;;;;;;4993667;28;20407;-78
2023/03/24 10:32:41;;;;;;;6.93;0.87;;;14.40;1.00;;;;;;4993701;28;20467;-79
2023/03/24 10:35:17;;;;;;;3.73;0.53;;;14.60;1.00;;;;;;5008742;28;20429;-78
2023/03/24 10:37:44;;;;;;;6.60;0.90;;;14.90;99.90;;;;;;4993801;28;20417;-79
2023/03/24 10:40:21;;;;;;;3.03;0.70;;;15.20;1.00;;;;;;4993639;28;20807;-79
2023/03/24 10:42:49;;;;;;;4.60;0.73;;;15.50;1.00;;;;;;4993756;28;20923;-79
2023/03/24 10:45:25;;;;;;;2.80;0.47;;;15.60;1.00;;;;;;4993394;28;20465;-78
2023/03/24 10:47:55;;;;;;;3.17;0.60;;;16.00;99.90;;;;;;5008837;28;20416;-79
2023/03/24 10:50:25;;;;;;;4.10;1.00;;;16.70;99.90;;;;;;4993629;28;20426;-79
2023/03/24 10:52:52;;;;;;;2.73;0.60;;;17.80;99.90;;;;;;4993414;28;20505;-80
2023/03/24 10:55:22;;;;;;;3.77;0.87;;;18.10;99.90;;;;;;4992639;28;20431;-79
2023/03/24 10:57:52;;;;;;;3.90;0.77;;;18.50;99.90;;;;;;4993393;28;20644;-79
2023/03/24 11:00:25;;;;;;;4.73;0.50;;;19.20;99.90;;;;;;4993026;28;20526;-78
2023/03/24 11:03:00;;;;;;;1.63;0.53;;;19.20;99.90;;;;;;4994115;28;20925;-79
2023/03/24 11:05:33;;;;;;;3.80;0.73;;;19.00;99.90;;;;;;4993698;28;20414;-79
2023/03/24 11:08:16;;;;;;;5.90;0.70;;;18.30;99.90;;;;;;4993470;28;20421;-78
2023/03/24 11:10:42;;;;;;;3.77;1.10;;;17.60;99.90;;;;;;4993458;28;20473;-78
2023/03/24 11:13:28;;;;;;;3.10;0.67;;;16.80;99.90;;;;;;4993300;28;20975;-78
2023/03/24 11:16:10;;;;;;;2.57;0.23;;;16.40;99.90;;;;;;4993454;28;20421;-78
2023/03/24 11:18:37;;;;;;;4.40;0.40;;;15.90;99.90;;;;;;4994716;28;20517;-78
2023/03/24 11:21:04;;;;;;;2.90;0.20;;;15.50;99.90;;;;;;4996979;28;20822;-78
2023/03/24 11:23:36;;;;;;;7.40;0.83;;;15.40;99.90;;;;;;4996026;28;20533;-78
2023/03/24 11:26:16;;;;;;;2.73;0.50;;;15.50;99.90;;;;;;4996006;28;20499;-79
2023/03/24 11:28:53;;;;;;;4.50;0.60;;;16.00;99.90;;;;;;4996920;28;20422;-79
2023/03/24 11:31:37;;;;;;;3.37;1.03;;;17.30;99.90;;;;;;4996057;28;20476;-79
2023/03/24 11:34:25;;;;;;;5.57;0.53;;;17.90;99.90;;;;;;5010946;28;20433;-78
2023/03/24 11:36:57;;;;;;;7.80;0.40;;;18.50;99.90;;;;;;4995512;28;20440;-79
2023/03/24 11:39:27;;;;;;;4.73;1.03;;;18.90;99.90;;;;;;4994925;28;20425;-79
2023/03/24 11:42:15;;;;;;;4.23;0.20;;;19.00;99.90;;;;;;4997115;28;20416;-79
2023/03/24 11:44:44;;;;;;;5.50;0.40;;;18.50;99.90;;;;;;4996693;28;20427;-78
2023/03/24 11:47:21;;;;;;;4.07;0.83;;;17.70;99.90;;;;;;4996775;28;20432;-78
2023/03/24 11:50:16;;;;;;;3.33;0.67;;;17.10;99.90;;;;;;4996915;28;20407;-79
2023/03/24 11:52:59;;;;;;;6.73;0.80;;;16.80;99.90;;;;;;4993431;28;20476;-79
2023/03/24 11:55:45;;;;;;;6.00;0.87;;;16.90;99.90;;;;;;4996773;28;20927;-79
2023/03/24 11:58:26;;;;;;;3.37;1.27;;;17.80;99.90;;;;;;4996346;28;20421;-79
2023/03/24 12:00:58;;;;;;;4.67;1.30;;;18.90;99.90;;;;;;5011536;28;20453;-79
2023/03/24 12:04:09;;;;;;;2.73;0.47;;;19.60;99.90;;;;;;4994943;28;20505;-79
2023/03/24 12:06:40;;;;;;;6.73;1.03;;;20.50;99.90;;;;;;5009351;28;20477;-79
2023/03/24 12:09:24;;;;;;;3.53;1.03;;;21.40;99.90;;;;;;4995072;28;20789;-79
2023/03/24 12:12:00;;;;;;;3.93;0.67;;;22.00;99.90;;;;;;4994991;28;20531;-79
2023/03/24 12:14:39;;;;;;;3.00;0.57;;;22.10;98.60;;;;;;4996030;28;20442;-79
2023/03/24 12:17:13;;;;;;;3.60;0.70;;;22.20;95.40;;;;;;4994867;28;20827;-80
2023/03/24 12:20:00;;;;;;;2.10;0.50;;;22.60;95.70;;;;;;4995013;28;20427;-79
2023/03/24 12:22:45;;;;;;;8.17;1.50;;;22.40;91.20;;;;;;4994915;28;20419;-79
2023/03/24 12:25:20;;;;;;;3.43;0.77;;;22.10;85.50;;;;;;4994799;28;20441;-80
2023/03/24 12:28:01;;;;;;;3.40;0.63;;;21.80;72.00;;;;;;4995999;28;20418;-80
2023/03/24 12:30:50;;;;;;;4.43;0.83;;;22.30;78.70;;;;;;4993428;28;20414;-79
2023/03/24 12:33:37;;;;;;;4.67;0.50;;;22.80;81.50;;;;;;4992527;28;20445;-80
2023/03/24 12:36:21;;;;;;;1.73;0.43;;;23.60;90.20;;;;;;4994724;28;20517;-80
2023/03/24 12:39:05;;;;;;;2.40;0.67;;;23.70;79.60;;;;;;4996106;28;20415;-79
2023/03/24 12:41:50;;;;;;;2.73;0.50;;;23.40;65.20;;;;;;4994533;28;20462;-79
2023/03/24 12:44:35;;;;;;;4.23;0.70;;;23.40;61.00;;;;;;5010462;28;20437;-78
2023/03/24 12:47:13;;;;;;;4.07;0.77;;;22.60;49.40;;;;;;4994592;28;20777;-79
2023/03/24 12:50:20;;;;;;;4.67;0.63;;;22.80;52.60;;;;;;4995721;28;20469;-79
2023/03/24 12:53:42;;;;;;;1.97;0.77;;;23.00;67.90;;;;;;4973446;28;20988;-79
2023/03/24 12:56:17;;;;;;;3.07;0.60;;;23.30;55.00;;;;;;4973934;28;20904;-79
2023/03/24 12:59:00;;;;;;;4.97;1.27;;;23.50;55.50;;;;;;4957182;28;20899;-79
2023/03/24 13:01:38;;;;;;;3.30;0.50;;;23.00;49.60;;;;;;4989864;28;20485;-79
2023/03/24 13:04:19;;;;;;;4.40;0.80;;;23.20;51.80;;;;;;4989917;28;20428;-79
2023/03/24 13:07:02;;;;;;;4.30;0.90;;;22.40;41.60;;;;;;4993106;28;20427;-79
2023/03/24 13:10:08;;;;;;;2.87;0.50;;;21.70;34.30;;;;;;4990824;28;20427;-79
2023/03/24 13:12:54;;;;;;;2.43;0.63;;;21.30;32.00;;;;;;4974375;28;20515;-79
2023/03/24 13:15:35;;;;;;;4.67;0.73;;;21.30;32.70;;;;;;4974048;28;20508;-79
2023/03/24 13:18:31;;;;;;;2.53;0.90;;;21.30;33.30;;;;;;4990677;28;20444;-79